createdAt,value
2022-09-24T00:00:27.871Z,100049.94
2022-09-24T00:02:56.682Z,100049.16
2022-09-24T00:05:29.124Z,100043.13
2022-09-24T00:07:57.595Z,100041.66
2022-09-24T00:10:29.033Z,100036.78
2022-09-24T00:12:59.872Z,100031.56
2022-09-24T00:15:31.630Z,100034.47
2022-09-24T00:18:06.596Z,100031.19
2022-09-24T00:20:38.659Z,100030.84
2022-09-24T00:23:09.477Z,100030.84
2022-09-24T00:26:07.439Z,100026.97
2022-09-24T00:28:36.345Z,100024.00
2022-09-24T00:31:23.379Z,100013.59
2022-09-24T00:33:52.563Z,100017.50
2022-09-24T00:36:32.000Z,100013.19
2022-09-24T00:39:05.374Z,100009.97
2022-09-24T00:41:42.992Z,100001.78
2022-09-24T00:44:46.288Z,99995.97
2022-09-24T00:47:47.845Z,99991.09
2022-09-24T00:50:32.510Z,99992.06
2022-09-24T00:53:26.161Z,99982.63
2022-09-24T00:55:58.735Z,99978.06
2022-09-24T00:58:28.773Z,99976.09
2022-09-24T01:01:06.300Z,99979.66
2022-09-24T01:03:42.683Z,99984.88
2022-09-24T01:06:16.950Z,99987.97
2022-09-24T01:08:51.066Z,99984.72
2022-09-24T01:12:35.048Z,99984.34
2022-09-24T01:15:42.325Z,99985.28
2022-09-24T01:18:41.694Z,99979.03
2022-09-24T01:21:31.885Z,99969.53
2022-09-24T01:24:26.576Z,99975.00
2022-09-24T01:27:04.499Z,99975.16
2022-09-24T01:29:42.692Z,99971.69
2022-09-24T01:32:23.789Z,99967.53
2022-09-24T01:35:04.333Z,99972.88
2022-09-24T01:37:40.469Z,99963.94
2022-09-24T01:40:15.696Z,99969.66
2022-09-24T01:42:46.566Z,99963.19
2022-09-24T01:45:16.631Z,99954.72
2022-09-24T01:47:51.123Z,99952.16
2022-09-24T01:50:26.266Z,99951.50
2022-09-24T01:53:13.891Z,99940.44
2022-09-24T01:55:50.960Z,99933.44
2022-09-24T01:58:52.568Z,99940.06
2022-09-24T02:02:05.200Z,99940.69
2022-09-24T02:04:42.515Z,99941.69
2022-09-24T02:07:46.128Z,99944.34
2022-09-24T02:10:24.811Z,99942.47
2022-09-24T02:13:08.626Z,99949.41
2022-09-24T02:15:46.209Z,99939.47
2022-09-24T02:18:25.636Z,99943.22
2022-09-24T02:20:58.394Z,99932.16
2022-09-24T02:23:45.518Z,99944.50
2022-09-24T02:26:27.538Z,99945.50
2022-09-24T02:28:59.573Z,99945.34
2022-09-24T02:31:36.003Z,99932.81
2022-09-24T02:34:23.369Z,99929.09
2022-09-24T02:37:17.450Z,99925.31
2022-09-24T02:39:51.462Z,99932.75
2022-09-24T02:42:22.814Z,99929.28
2022-09-24T02:44:52.816Z,99927.03
2022-09-24T02:47:25.707Z,99929.13
2022-09-24T02:49:57.508Z,99924.97
2022-09-24T02:52:26.464Z,99929.16
2022-09-24T02:54:59.567Z,99929.88
2022-09-24T02:57:30.003Z,99932.78
2022-09-24T03:00:01.692Z,99934.63
2022-09-24T03:02:32.731Z,99928.16
2022-09-24T03:05:02.160Z,99930.19
2022-09-24T03:07:39.285Z,99918.38
2022-09-24T03:10:09.387Z,99916.53
2022-09-24T03:12:38.506Z,99923.16
2022-09-24T03:15:10.549Z,99922.03
2022-09-24T03:17:42.311Z,99914.22
2022-09-24T03:20:12.896Z,99909.22
2022-09-24T03:22:44.384Z,99898.97
2022-09-24T03:25:13.036Z,99902.41
2022-09-24T03:27:41.008Z,99907.66
2022-09-24T03:30:33.991Z,99904.41
2022-09-24T03:33:07.389Z,99903.22
2022-09-24T03:35:37.822Z,99906.44
2022-09-24T03:38:05.894Z,99916.22
2022-09-24T03:40:36.668Z,99914.44
2022-09-24T03:43:07.838Z,99909.88
2022-09-24T03:45:39.421Z,99915.59
2022-09-24T03:48:07.594Z,99913.31
2022-09-24T03:50:39.538Z,99921.22
2022-09-24T03:53:18.387Z,99913.69
2022-09-24T03:55:56.720Z,99905.06
2022-09-24T03:58:31.941Z,99917.13
2022-09-24T04:01:02.567Z,99920.13
2022-09-24T04:03:32.371Z,99910.97
2022-09-24T04:06:06.069Z,99898.00
2022-09-24T04:08:36.281Z,99898.94
2022-09-24T04:11:06.939Z,99900.38
2022-09-24T04:13:36.444Z,99898.03
2022-09-24T04:16:07.624Z,99896.59
2022-09-24T04:18:41.195Z,99897.44
2022-09-24T04:21:16.671Z,99906.03
2022-09-24T04:23:47.447Z,99904.41
2022-09-24T04:26:24.633Z,99902.00
2022-09-24T04:28:52.413Z,99896.97
2022-09-24T04:31:29.475Z,99883.47
2022-09-24T04:34:00.009Z,99890.41
2022-09-24T04:36:30.272Z,99879.47
2022-09-24T04:39:03.755Z,99887.88
2022-09-24T04:41:31.934Z,99893.13
2022-09-24T04:44:02.161Z,99895.94
2022-09-24T04:46:34.695Z,99890.59
2022-09-24T04:49:09.634Z,99893.34
2022-09-24T04:51:37.321Z,99891.66
2022-09-24T04:54:08.685Z,99902.97
2022-09-24T04:56:39.396Z,99903.59
2022-09-24T04:59:12.115Z,99899.56
2022-09-24T05:01:40.479Z,99898.38
2022-09-24T05:04:14.159Z,99899.91
2022-09-24T05:06:45.120Z,99897.53
2022-09-24T05:09:13.490Z,99896.25
2022-09-24T05:11:44.304Z,99915.22
2022-09-24T05:14:12.385Z,99909.66
2022-09-24T05:16:48.651Z,99910.22
2022-09-24T05:19:19.385Z,99906.13
2022-09-24T05:21:48.681Z,99912.25
2022-09-24T05:24:20.528Z,99914.06
2022-09-24T05:27:09.309Z,99910.66
2022-09-24T05:29:46.537Z,99919.94
2022-09-24T05:32:22.651Z,99911.81
2022-09-24T05:34:51.542Z,99912.88
2022-09-24T05:37:20.756Z,99908.78
2022-09-24T05:39:48.500Z,99914.06
2022-09-24T05:42:16.780Z,99912.16
2022-09-24T05:44:51.950Z,99922.69
2022-09-24T05:47:20.395Z,99918.56
2022-09-24T05:49:48.774Z,99921.75
2022-09-24T05:52:19.230Z,99922.50
2022-09-24T05:54:47.293Z,99917.69
2022-09-24T05:57:16.028Z,99916.13
2022-09-24T05:59:46.382Z,99910.53
2022-09-24T06:02:15.184Z,99906.28
2022-09-24T06:04:43.143Z,99913.28
2022-09-24T06:07:12.038Z,99913.47
2022-09-24T06:09:39.913Z,99916.13
2022-09-24T06:12:19.978Z,99910.34
2022-09-24T06:14:51.102Z,99902.50
2022-09-24T06:17:18.967Z,99899.50
2022-09-24T06:19:49.615Z,99893.69
2022-09-24T06:22:26.278Z,99910.63
2022-09-24T06:25:02.567Z,99911.38
2022-09-24T06:27:34.093Z,99915.97
2022-09-24T06:30:08.500Z,99906.22
2022-09-24T06:32:40.363Z,99914.69
2022-09-24T06:35:22.891Z,99933.63
2022-09-24T06:37:54.144Z,99946.84
2022-09-24T06:40:26.672Z,99944.78
2022-09-24T06:42:57.770Z,99942.00
2022-09-24T06:45:34.023Z,99949.34
2022-09-24T06:48:11.102Z,99941.22
2022-09-24T06:50:46.634Z,99931.44
2022-09-24T06:53:18.612Z,99944.81
2022-09-24T06:55:47.302Z,99949.69
2022-09-24T06:58:23.285Z,99951.69
2022-09-24T07:01:04.898Z,99951.66
2022-09-24T07:03:41.222Z,99948.41
2022-09-24T07:06:15.531Z,99942.84
2022-09-24T07:08:45.347Z,99939.28
2022-09-24T07:11:14.418Z,99930.94
2022-09-24T07:13:45.028Z,99934.03
2022-09-24T07:16:12.900Z,99944.16
2022-09-24T07:18:50.638Z,99940.16
2022-09-24T07:21:22.288Z,99943.56
2022-09-24T07:23:58.329Z,99948.69
2022-09-24T07:26:29.724Z,99948.03
2022-09-24T07:28:57.654Z,99943.81
2022-09-24T07:31:25.792Z,99949.38
2022-09-24T07:33:53.688Z,99948.00
2022-09-24T07:36:24.762Z,99938.25
2022-09-24T07:38:52.576Z,99943.91
2022-09-24T07:41:20.685Z,99934.75
2022-09-24T07:43:50.698Z,99940.34
2022-09-24T07:46:20.450Z,99945.16
2022-09-24T07:48:51.311Z,99948.09
2022-09-24T07:51:29.028Z,99941.38
2022-09-24T07:53:59.456Z,99944.16
2022-09-24T07:56:27.435Z,99943.63
2022-09-24T07:59:00.112Z,99952.75
2022-09-24T08:01:28.408Z,99960.50
2022-09-24T08:04:00.267Z,99972.25
2022-09-24T08:06:35.746Z,99968.66
2022-09-24T08:09:07.216Z,99970.28
2022-09-24T08:11:41.724Z,99974.34
2022-09-24T08:14:14.771Z,99980.13
2022-09-24T08:16:42.874Z,99986.03
2022-09-24T08:19:14.506Z,99978.91
2022-09-24T08:21:44.718Z,99976.50
2022-09-24T08:24:23.510Z,99966.00
2022-09-24T08:26:51.564Z,99980.09
2022-09-24T08:29:19.519Z,99974.06
2022-09-24T08:31:48.041Z,99977.03
2022-09-24T08:34:19.105Z,99966.41
2022-09-24T08:36:50.431Z,99964.22
2022-09-24T08:39:25.853Z,99962.22
2022-09-24T08:42:39.875Z,99956.59
2022-09-24T08:45:29.040Z,99954.03
2022-09-24T08:48:20.843Z,99959.16
2022-09-24T08:51:18.999Z,99949.38
2022-09-24T08:54:00.532Z,99953.41
2022-09-24T08:56:34.593Z,99944.69
2022-09-24T08:59:23.711Z,99964.19
2022-09-24T09:02:02.206Z,99957.59
2022-09-24T09:05:19.556Z,99964.94
2022-09-24T09:08:33.883Z,99970.06
2022-09-24T09:11:03.466Z,99967.38
2022-09-24T09:13:45.280Z,99959.28
2022-09-24T09:16:28.514Z,99955.75
2022-09-24T09:19:05.201Z,99961.34
2022-09-24T09:21:47.369Z,99956.09
2022-09-24T09:24:23.769Z,99953.09
2022-09-24T09:26:59.179Z,99956.91
2022-09-24T09:29:34.410Z,99964.53
2022-09-24T09:32:33.537Z,99972.59
2022-09-24T09:35:41.580Z,99978.38
2022-09-24T09:38:45.801Z,99983.22
2022-09-24T09:41:32.835Z,99962.69
2022-09-24T09:44:14.817Z,99952.97
2022-09-24T09:46:53.288Z,99951.59
2022-09-24T09:49:23.494Z,99951.34
2022-09-24T09:51:55.566Z,99950.06
2022-09-24T09:54:41.448Z,99947.22
2022-09-24T09:57:23.004Z,99948.84
2022-09-24T09:59:57.230Z,99942.59
2022-09-24T10:02:39.926Z,99947.75
2022-09-24T10:05:26.350Z,99947.50
2022-09-24T10:08:03.006Z,99934.19
2022-09-24T10:10:31.421Z,99940.59
2022-09-24T10:13:19.815Z,99941.44
2022-09-24T10:16:00.873Z,99931.34
2022-09-24T10:18:47.386Z,99922.44
2022-09-24T10:21:31.311Z,99927.72
2022-09-24T10:24:12.494Z,99941.47
2022-09-24T10:26:45.555Z,99923.25
2022-09-24T10:29:44.937Z,99931.69
2022-09-24T10:32:30.440Z,99934.56
2022-09-24T10:35:07.201Z,99937.78
2022-09-24T10:37:35.988Z,99942.28
2022-09-24T10:40:24.494Z,99937.22
2022-09-24T10:43:03.384Z,99935.22
2022-09-24T10:45:51.325Z,99924.44
2022-09-24T10:48:38.120Z,99916.94
2022-09-24T10:51:47.471Z,99926.03
2022-09-24T10:54:59.040Z,99924.97
2022-09-24T10:57:49.948Z,99921.81
2022-09-24T11:00:27.245Z,99918.81
2022-09-24T11:03:32.801Z,99934.78
2022-09-24T11:06:19.932Z,99927.28
2022-09-24T11:09:12.659Z,99927.47
2022-09-24T11:12:38.092Z,99920.59
2022-09-24T11:15:48.935Z,99925.66
2022-09-24T11:18:56.686Z,99915.88
2022-09-24T11:21:58.210Z,99909.38
2022-09-24T11:25:04.294Z,99907.16
2022-09-24T11:27:44.255Z,99904.72
2022-09-24T11:30:30.856Z,99894.16
2022-09-24T11:33:26.894Z,99896.94
2022-09-24T11:36:16.572Z,99892.91
2022-09-24T11:39:15.542Z,99893.59
2022-09-24T11:42:29.471Z,99908.91
2022-09-24T11:45:38.256Z,99903.88
2022-09-24T11:48:38.359Z,99899.09
2022-09-24T11:51:38.460Z,99897.25
2022-09-24T11:54:26.105Z,99879.41
2022-09-24T11:57:09.521Z,99882.22
2022-09-24T12:00:19.169Z,99881.91
2022-09-24T12:03:04.279Z,99883.25
2022-09-24T12:05:47.559Z,99881.44
2022-09-24T12:08:40.322Z,99872.97
2022-09-24T12:11:32.148Z,99870.00
2022-09-24T12:14:15.495Z,99856.56
2022-09-24T12:16:48.162Z,99850.38
2022-09-24T12:19:37.229Z,99862.16
2022-09-24T12:22:10.824Z,99838.72
2022-09-24T12:25:03.878Z,99848.06
2022-09-24T12:27:37.940Z,99841.97
2022-09-24T12:30:42.540Z,99850.47
2022-09-24T12:33:33.022Z,99848.34
2022-09-24T12:36:28.553Z,99842.34
2022-09-24T12:39:16.901Z,99837.91
2022-09-24T12:42:01.142Z,99841.22
2022-09-24T12:44:52.470Z,99831.38
2022-09-24T12:47:33.507Z,99835.69
2022-09-24T12:50:16.249Z,99841.16
2022-09-24T12:52:45.762Z,99838.25
2022-09-24T12:55:29.623Z,99837.84
2022-09-24T12:58:42.828Z,99847.16
2022-09-24T13:01:27.407Z,99842.03
2022-09-24T13:04:22.697Z,99839.75
2022-09-24T13:07:28.290Z,99840.06
2022-09-24T13:09:58.365Z,99821.59
2022-09-24T13:12:43.213Z,99819.03
2022-09-24T13:15:45.113Z,99811.72
2022-09-24T13:18:20.420Z,99807.47
2022-09-24T13:21:19.643Z,99796.84
2022-09-24T13:23:53.143Z,99807.88
2022-09-24T13:26:36.470Z,99808.91
2022-09-24T13:29:24.308Z,99806.63
2022-09-24T13:32:00.682Z,99806.50
2022-09-24T13:34:35.259Z,99805.88
2022-09-24T13:37:11.172Z,99802.53
2022-09-24T13:39:51.542Z,99800.47
2022-09-24T13:42:46.598Z,99787.53
2022-09-24T13:45:26.336Z,99783.16
2022-09-24T13:48:06.694Z,99794.38
2022-09-24T13:50:50.245Z,99797.25
2022-09-24T13:53:28.840Z,99794.78
2022-09-24T13:56:19.572Z,99792.66
2022-09-24T13:59:09.608Z,99797.53
2022-09-24T14:01:44.091Z,99793.72
2022-09-24T14:04:23.302Z,99782.69
2022-09-24T14:06:57.491Z,99786.03
2022-09-24T14:09:40.228Z,99784.09
2022-09-24T14:12:22.744Z,99783.81
2022-09-24T14:14:57.887Z,99773.59
2022-09-24T14:17:33.870Z,99765.81
2022-09-24T14:20:02.127Z,99766.34
2022-09-24T14:22:35.406Z,99763.75
2022-09-24T14:25:21.028Z,99763.63
2022-09-24T14:27:55.310Z,99758.19
2022-09-24T14:30:29.057Z,99753.72
2022-09-24T14:33:17.456Z,99757.97
2022-09-24T14:36:11.746Z,99760.59
2022-09-24T14:39:05.524Z,99761.59
2022-09-24T14:41:38.913Z,99753.78
2022-09-24T14:44:35.811Z,99762.34
2022-09-24T14:47:21.799Z,99758.09
2022-09-24T14:49:53.370Z,99766.13
2022-09-24T14:52:38.520Z,99760.28
2022-09-24T14:55:22.332Z,99768.97
2022-09-24T14:57:56.831Z,99764.72
2022-09-24T15:00:28.749Z,99762.47
2022-09-24T15:03:15.543Z,99763.50
2022-09-24T15:06:01.407Z,99766.94
2022-09-24T15:08:30.210Z,99763.28
2022-09-24T15:11:16.654Z,99757.13
2022-09-24T15:13:58.742Z,99739.63
2022-09-24T15:16:34.099Z,99748.63
2022-09-24T15:19:27.218Z,99741.97
2022-09-24T15:21:57.878Z,99739.28
2022-09-24T15:24:26.767Z,99748.06
2022-09-24T15:27:06.822Z,99742.78
2022-09-24T15:29:35.000Z,99743.34
2022-09-24T15:32:06.314Z,99735.53
2022-09-24T15:34:35.852Z,99738.06
2022-09-24T15:37:03.971Z,99746.00
2022-09-24T15:39:32.397Z,99745.19
2022-09-24T15:42:02.783Z,99739.78
2022-09-24T15:44:34.312Z,99740.16
2022-09-24T15:47:02.722Z,99734.06
2022-09-24T15:49:34.115Z,99741.25
2022-09-24T15:52:24.589Z,99747.50
2022-09-24T15:55:04.326Z,99740.16
2022-09-24T15:57:36.733Z,99748.19
2022-09-24T16:00:05.467Z,99745.16
2022-09-24T16:02:39.628Z,99753.75
2022-09-24T16:05:16.454Z,99759.81
2022-09-24T16:07:45.022Z,99773.16
2022-09-24T16:10:15.788Z,99765.66
2022-09-24T16:12:43.932Z,99769.63
2022-09-24T16:15:16.323Z,99763.31
2022-09-24T16:17:51.786Z,99762.72
2022-09-24T16:20:19.936Z,99764.69
2022-09-24T16:22:47.908Z,99775.59
2022-09-24T16:25:16.084Z,99778.81
2022-09-24T16:27:44.685Z,99779.13
2022-09-24T16:30:15.008Z,99781.44
2022-09-24T16:32:46.287Z,99795.94
2022-09-24T16:35:16.522Z,99800.31
2022-09-24T16:37:50.585Z,99806.00
2022-09-24T16:40:21.981Z,99813.00
2022-09-24T16:42:50.400Z,99813.31
2022-09-24T16:45:18.286Z,99831.38
2022-09-24T16:47:46.030Z,99830.88
2022-09-24T16:50:17.018Z,99828.28
2022-09-24T16:52:50.471Z,99828.69
2022-09-24T16:55:18.523Z,99828.66
2022-09-24T16:57:49.178Z,99833.94
2022-09-24T17:00:24.025Z,99823.94
2022-09-24T17:02:53.033Z,99830.59
2022-09-24T17:05:21.579Z,99830.34
2022-09-24T17:07:55.822Z,99840.94
2022-09-24T17:10:27.564Z,99835.31
2022-09-24T17:12:56.806Z,99833.66
2022-09-24T17:15:25.357Z,99843.00
2022-09-24T17:17:55.012Z,99853.13
2022-09-24T17:20:31.843Z,99864.47
2022-09-24T17:23:00.676Z,99865.13
2022-09-24T17:25:29.702Z,99861.47
2022-09-24T17:27:57.561Z,99863.47
2022-09-24T17:30:39.254Z,99864.06
2022-09-24T17:33:25.312Z,99855.88
2022-09-24T17:36:05.997Z,99858.13
2022-09-24T17:38:37.237Z,99859.75
2022-09-24T17:41:15.242Z,99853.03
2022-09-24T17:43:44.149Z,99854.56
2022-09-24T17:46:23.399Z,99853.16
2022-09-24T17:48:58.346Z,99857.13
2022-09-24T17:51:35.515Z,99858.81
2022-09-24T17:54:16.280Z,99859.91
2022-09-24T17:56:47.016Z,99864.50
2022-09-24T17:59:22.880Z,99866.44
2022-09-24T18:01:57.401Z,99863.56
2022-09-24T18:04:27.213Z,99869.41
2022-09-24T18:06:56.440Z,99864.56
2022-09-24T18:09:25.607Z,99869.06
2022-09-24T18:11:54.912Z,99883.31
2022-09-24T18:14:28.309Z,99891.66
2022-09-24T18:17:00.584Z,99904.78
2022-09-24T18:19:29.589Z,99910.97
2022-09-24T18:22:07.979Z,99910.81
2022-09-24T18:24:38.866Z,99899.38
2022-09-24T18:27:10.389Z,99900.38
2022-09-24T18:29:41.022Z,99903.09
2022-09-24T18:32:14.899Z,99898.94
2022-09-24T18:34:45.768Z,99901.22
2022-09-24T18:37:20.187Z,99905.72
2022-09-24T18:39:53.920Z,99901.75
2022-09-24T18:42:31.565Z,99896.25
2022-09-24T18:45:09.888Z,99903.22
2022-09-24T18:47:41.432Z,99909.44
2022-09-24T18:50:21.816Z,99913.31
2022-09-24T18:52:50.705Z,99917.38
2022-09-24T18:55:22.545Z,99920.91
2022-09-24T18:57:55.943Z,99920.25
2022-09-24T19:00:45.944Z,99917.06
2022-09-24T19:03:14.642Z,99917.56
2022-09-24T19:05:56.324Z,99920.59
2022-09-24T19:08:37.787Z,99920.91
2022-09-24T19:11:14.471Z,99912.50
2022-09-24T19:13:55.253Z,99920.09
2022-09-24T19:16:24.988Z,99917.59
2022-09-24T19:18:59.020Z,99912.81
2022-09-24T19:21:32.888Z,99922.00
2022-09-24T19:24:03.189Z,99920.47
2022-09-24T19:26:41.536Z,99929.16
2022-09-24T19:29:11.414Z,99930.84
2022-09-24T19:31:48.308Z,99924.53
2022-09-24T19:34:17.304Z,99929.91
2022-09-24T19:36:45.787Z,99931.22
2022-09-24T19:39:21.514Z,99939.22
2022-09-24T19:41:53.537Z,99931.44
2022-09-24T19:44:24.420Z,99930.41
2022-09-24T19:46:59.370Z,99944.34
2022-09-24T19:49:30.500Z,99941.75
2022-09-24T19:52:00.617Z,99931.69
2022-09-24T19:54:30.738Z,99940.31
2022-09-24T19:56:58.086Z,99947.88
2022-09-24T19:59:25.952Z,99950.22
2022-09-24T20:01:56.413Z,99947.16
2022-09-24T20:04:24.850Z,99942.97
2022-09-24T20:07:01.172Z,99948.38
2022-09-24T20:09:32.946Z,99950.59
2022-09-24T20:12:02.899Z,99950.56
2022-09-24T20:14:37.234Z,99959.88
2022-09-24T20:17:07.974Z,99953.75
2022-09-24T20:19:48.149Z,99955.72
2022-09-24T20:22:28.864Z,99957.63
2022-09-24T20:24:59.519Z,99956.97
2022-09-24T20:27:49.310Z,99951.63
2022-09-24T20:30:25.866Z,99951.66
2022-09-24T20:32:54.796Z,99959.72
2022-09-24T20:35:26.405Z,99950.75
2022-09-24T20:37:56.423Z,99959.78
2022-09-24T20:40:30.089Z,99961.53
2022-09-24T20:43:10.098Z,99969.19
2022-09-24T20:45:41.736Z,99964.94
2022-09-24T20:48:15.399Z,99966.38
2022-09-24T20:50:46.682Z,99968.38
2022-09-24T20:53:15.972Z,99963.41
2022-09-24T20:55:44.672Z,99962.66
2022-09-24T20:58:22.089Z,99965.50
2022-09-24T21:00:55.933Z,99955.47
2022-09-24T21:03:42.775Z,99960.34
2022-09-24T21:06:18.428Z,99957.72
2022-09-24T21:08:48.364Z,99961.06
2022-09-24T21:11:30.709Z,99954.34
2022-09-24T21:14:06.360Z,99963.50
2022-09-24T21:16:38.980Z,99957.34
2022-09-24T21:19:08.472Z,99956.44
2022-09-24T21:21:39.845Z,99953.16
2022-09-24T21:24:17.529Z,99954.63
2022-09-24T21:26:47.191Z,99953.72
2022-09-24T21:29:24.911Z,99957.78
2022-09-24T21:31:53.562Z,99956.97
2022-09-24T21:34:22.527Z,99951.22
2022-09-24T21:36:55.318Z,99953.38
2022-09-24T21:39:29.941Z,99941.56
2022-09-24T21:42:00.292Z,99946.25
2022-09-24T21:44:36.957Z,99943.19
2022-09-24T21:47:13.164Z,99943.38
2022-09-24T21:49:44.561Z,99951.41
2022-09-24T21:52:17.333Z,99939.94
2022-09-24T21:54:54.126Z,99943.63
2022-09-24T21:57:25.531Z,99944.19
2022-09-24T22:00:07.431Z,99933.16
2022-09-24T22:02:46.337Z,99939.81
2022-09-24T22:05:19.348Z,99946.47
2022-09-24T22:07:50.376Z,99939.06
2022-09-24T22:10:18.551Z,99942.22
2022-09-24T22:12:48.497Z,99938.19
2022-09-24T22:15:20.308Z,99942.44
2022-09-24T22:17:55.395Z,99944.88
2022-09-24T22:20:24.229Z,99938.03
2022-09-24T22:22:56.549Z,99935.75
2022-09-24T22:25:31.568Z,99933.94
2022-09-24T22:28:04.451Z,99934.56
2022-09-24T22:30:39.634Z,99941.22
2022-09-24T22:33:09.629Z,99939.16
2022-09-24T22:35:51.727Z,99945.38
2022-09-24T22:38:23.618Z,99944.66
2022-09-24T22:40:55.115Z,99944.06
2022-09-24T22:43:25.443Z,99940.19
2022-09-24T22:46:09.700Z,99933.88
2022-09-24T22:48:38.302Z,99940.00
2022-09-24T22:51:11.554Z,99943.56
2022-09-24T22:53:42.234Z,99938.31
2022-09-24T22:56:22.564Z,99941.28
2022-09-24T22:58:59.559Z,99941.56
2022-09-24T23:01:45.756Z,99940.00
2022-09-24T23:04:16.475Z,99935.59
2022-09-24T23:06:44.527Z,99942.25
2022-09-24T23:09:16.327Z,99942.88
2022-09-24T23:11:45.910Z,99941.91
2022-09-24T23:14:18.386Z,99936.13
2022-09-24T23:16:48.674Z,99936.75
2022-09-24T23:19:22.109Z,99937.03
2022-09-24T23:21:49.767Z,99936.22
2022-09-24T23:24:20.090Z,99938.31
2022-09-24T23:26:50.514Z,99944.69
2022-09-24T23:29:18.477Z,99948.41
2022-09-24T23:31:46.343Z,99942.56
2022-09-24T23:34:15.436Z,99935.31
2022-09-24T23:36:46.505Z,99938.56
2022-09-24T23:39:21.653Z,99942.63
2022-09-24T23:41:52.988Z,99947.44
2022-09-24T23:44:24.518Z,99950.47
2022-09-24T23:47:04.762Z,99943.88
2022-09-24T23:49:37.285Z,99941.91
2022-09-24T23:52:08.942Z,99941.06
2022-09-24T23:54:39.710Z,99948.41
2022-09-24T23:57:13.361Z,99950.22
2022-09-24T23:59:46.275Z,99941.75
